createdAt,value
2023-12-18T00:00:23.263Z,19.30
2023-12-18T00:02:50.905Z,14.50
2023-12-18T00:05:18.682Z,18.80
2023-12-18T00:07:46.409Z,19.40
2023-12-18T00:10:14.369Z,20.10
2023-12-18T00:12:42.046Z,19.90
2023-12-18T00:15:09.849Z,22.20
2023-12-18T00:17:37.614Z,18.10
2023-12-18T00:20:05.781Z,20.20
2023-12-18T00:22:33.513Z,21.10
2023-12-18T00:25:01.172Z,19.70
2023-12-18T00:27:28.810Z,21.00
2023-12-18T00:29:56.492Z,18.80
2023-12-18T00:32:24.051Z,22.20
2023-12-18T00:34:51.802Z,23.80
2023-12-18T00:37:19.468Z,25.10
2023-12-18T00:39:47.037Z,19.30
2023-12-18T00:42:14.629Z,21.30
2023-12-18T00:44:42.260Z,24.60
2023-12-18T00:47:09.914Z,18.50
2023-12-18T00:49:37.904Z,14.30
2023-12-18T00:52:05.640Z,16.50
2023-12-18T00:54:33.236Z,20.50
2023-12-18T00:57:00.902Z,20.50
2023-12-18T00:59:28.531Z,16.00
2023-12-18T01:01:56.085Z,22.90
2023-12-18T01:04:23.684Z,18.90
2023-12-18T01:06:51.325Z,15.80
2023-12-18T01:09:19.013Z,19.00
2023-12-18T01:11:46.526Z,18.70
2023-12-18T01:14:14.094Z,19.00
2023-12-18T01:16:41.452Z,17.00
2023-12-18T01:19:09.299Z,22.90
2023-12-18T01:21:37.027Z,20.00
2023-12-18T01:24:04.777Z,15.60
2023-12-18T01:26:32.502Z,18.10
2023-12-18T01:29:00.177Z,18.00
2023-12-18T01:31:27.852Z,20.20
2023-12-18T01:33:55.699Z,15.50
2023-12-18T01:36:23.646Z,17.90
2023-12-18T01:38:51.332Z,18.30
2023-12-18T01:41:18.985Z,17.30
2023-12-18T01:43:46.529Z,15.30
2023-12-18T01:46:14.095Z,14.20
2023-12-18T01:48:41.762Z,17.10
2023-12-18T01:51:09.973Z,16.70
2023-12-18T01:53:37.596Z,16.00
2023-12-18T01:56:05.263Z,15.70
2023-12-18T01:58:32.830Z,19.40
2023-12-18T02:01:00.570Z,15.50
2023-12-18T02:03:28.320Z,17.40
2023-12-18T02:05:56.110Z,15.40
2023-12-18T02:08:23.667Z,17.40
2023-12-18T02:10:51.118Z,15.80
2023-12-18T02:13:18.672Z,15.50
2023-12-18T02:15:46.584Z,15.10
2023-12-18T02:18:14.460Z,12.40
2023-12-18T02:20:42.278Z,14.80
2023-12-18T02:23:09.831Z,19.80
2023-12-18T02:25:37.409Z,17.30
2023-12-18T02:28:05.058Z,18.10
2023-12-18T02:30:32.731Z,15.50
2023-12-18T02:33:00.463Z,18.90
2023-12-18T02:35:28.489Z,19.60
2023-12-18T02:37:56.116Z,20.20
2023-12-18T02:40:23.672Z,16.70
2023-12-18T02:42:51.365Z,18.30
2023-12-18T02:45:19.089Z,17.90
2023-12-18T02:47:46.974Z,18.10
2023-12-18T02:50:14.732Z,21.60
2023-12-18T02:52:42.389Z,19.50
2023-12-18T02:55:09.944Z,18.80
2023-12-18T02:57:37.846Z,19.00
2023-12-18T03:00:05.631Z,17.80
2023-12-18T03:02:33.345Z,18.90
2023-12-18T03:05:00.948Z,20.30
2023-12-18T03:07:28.666Z,20.70
2023-12-18T03:09:56.237Z,20.90
2023-12-18T03:12:24.056Z,21.90
2023-12-18T03:14:51.755Z,19.60
2023-12-18T03:17:19.735Z,21.30
2023-12-18T03:19:47.371Z,18.20
2023-12-18T03:22:15.151Z,23.80
2023-12-18T03:24:42.786Z,24.10
2023-12-18T03:27:10.580Z,19.50
2023-12-18T03:29:38.187Z,20.70
2023-12-18T03:32:05.792Z,23.10
2023-12-18T03:34:33.541Z,22.80
2023-12-18T03:37:01.754Z,22.90
2023-12-18T03:39:29.314Z,23.10
2023-12-18T03:41:56.845Z,18.10
2023-12-18T03:44:24.402Z,21.40
2023-12-18T03:46:51.964Z,18.80
2023-12-18T03:49:19.805Z,18.10
2023-12-18T03:51:47.529Z,21.20
2023-12-18T03:54:15.278Z,17.10
2023-12-18T03:56:42.813Z,18.80
2023-12-18T03:59:10.684Z,22.50
2023-12-18T04:01:38.294Z,21.00
2023-12-18T04:04:06.069Z,17.00
2023-12-18T04:06:33.799Z,18.90
2023-12-18T04:09:01.452Z,21.60
2023-12-18T04:11:29.022Z,19.10
2023-12-18T04:13:56.655Z,17.20
2023-12-18T04:16:24.321Z,22.10
2023-12-18T04:18:52.025Z,17.80
2023-12-18T04:21:19.875Z,22.50
2023-12-18T04:23:47.601Z,19.30
2023-12-18T04:26:15.180Z,24.10
2023-12-18T04:28:42.833Z,17.70
2023-12-18T04:31:10.411Z,15.40
2023-12-18T04:33:38.326Z,17.90
2023-12-18T04:36:06.074Z,17.20
2023-12-18T04:38:33.784Z,18.10
2023-12-18T04:41:01.335Z,18.40
2023-12-18T04:43:28.905Z,18.00
2023-12-18T04:45:56.458Z,14.10
2023-12-18T04:48:24.180Z,16.10
2023-12-18T04:50:51.778Z,19.20
2023-12-18T04:53:19.338Z,16.00
2023-12-18T04:55:46.996Z,15.50
2023-12-18T04:58:14.582Z,16.90
2023-12-18T05:00:42.315Z,15.50
2023-12-18T05:03:10.216Z,15.50
2023-12-18T05:05:38.400Z,16.60
2023-12-18T05:08:05.922Z,18.80
2023-12-18T05:10:33.490Z,14.60
2023-12-18T05:13:01.062Z,17.30
2023-12-18T05:15:28.753Z,15.90
2023-12-18T05:17:56.384Z,17.40
2023-12-18T05:20:24.038Z,16.70
2023-12-18T05:22:51.704Z,24.10
2023-12-18T05:25:19.573Z,16.10
2023-12-18T05:27:47.170Z,15.20
2023-12-18T05:30:15.073Z,14.90
2023-12-18T05:32:43.188Z,13.00
2023-12-18T05:35:11.025Z,13.90
2023-12-18T05:37:38.685Z,11.90
2023-12-18T05:40:06.338Z,19.60
2023-12-18T05:42:33.990Z,21.50
2023-12-18T05:45:01.992Z,17.30
2023-12-18T05:47:29.675Z,17.30
2023-12-18T05:49:57.351Z,19.00
2023-12-18T05:52:25.068Z,15.70
2023-12-18T05:54:52.682Z,14.40
2023-12-18T05:57:20.579Z,17.70
2023-12-18T05:59:48.252Z,16.50
2023-12-18T06:02:15.916Z,15.40
2023-12-18T06:04:43.609Z,15.40
2023-12-18T06:07:11.792Z,13.80
2023-12-18T06:09:39.652Z,12.30
2023-12-18T06:12:07.419Z,15.20
2023-12-18T06:14:35.054Z,10.80
2023-12-18T06:17:02.708Z,12.80
2023-12-18T06:19:30.374Z,15.50
2023-12-18T06:21:58.119Z,10.00
2023-12-18T06:24:25.724Z,16.90
2023-12-18T06:26:53.752Z,16.90
2023-12-18T06:29:21.108Z,15.20
2023-12-18T06:31:48.824Z,13.50
2023-12-18T06:34:16.722Z,13.80
2023-12-18T06:36:44.454Z,14.50
2023-12-18T06:39:12.269Z,11.70
2023-12-18T06:41:39.931Z,15.70
2023-12-18T06:44:07.595Z,15.50
2023-12-18T06:46:35.160Z,14.90
2023-12-18T06:49:03.184Z,15.90
2023-12-18T06:51:30.892Z,15.90
2023-12-18T06:53:58.566Z,15.80
2023-12-18T06:56:26.105Z,15.30
2023-12-18T06:58:53.870Z,17.90
2023-12-18T07:01:21.534Z,13.00
2023-12-18T07:03:49.276Z,17.60
2023-12-18T07:06:16.974Z,21.20
2023-12-18T07:08:44.744Z,14.30
2023-12-18T07:11:12.281Z,18.50
2023-12-18T07:13:39.951Z,20.10
2023-12-18T07:16:07.529Z,16.80
2023-12-18T07:18:35.379Z,23.30
2023-12-18T07:21:03.232Z,19.90
2023-12-18T07:23:30.796Z,21.30
2023-12-18T07:25:58.346Z,18.40
2023-12-18T07:28:25.911Z,19.80
2023-12-18T07:30:53.324Z,23.10
2023-12-18T07:33:21.275Z,24.80
2023-12-18T07:35:48.898Z,25.30
2023-12-18T07:38:16.558Z,29.50
2023-12-18T07:40:44.117Z,21.70
2023-12-18T07:43:11.775Z,15.70
2023-12-18T07:45:39.376Z,16.90
2023-12-18T07:48:12.635Z,14.40
2023-12-18T07:50:40.424Z,15.40
2023-12-18T07:53:08.052Z,12.70
2023-12-18T07:55:36.023Z,14.70
2023-12-18T07:58:03.691Z,15.10
2023-12-18T08:00:31.270Z,13.50
2023-12-18T08:02:59.187Z,15.40
2023-12-18T08:05:26.956Z,15.10
2023-12-18T08:07:54.845Z,15.00
2023-12-18T08:10:22.404Z,14.50
2023-12-18T08:12:50.170Z,20.10
2023-12-18T08:15:17.855Z,19.30
2023-12-18T08:17:45.741Z,26.60
2023-12-18T08:20:13.457Z,21.30
2023-12-18T08:22:41.470Z,20.00
2023-12-18T08:25:09.192Z,19.50
2023-12-18T08:27:36.876Z,20.00
2023-12-18T08:30:04.597Z,25.50
2023-12-18T08:32:32.435Z,27.60
2023-12-18T08:35:00.353Z,27.70
2023-12-18T08:37:28.011Z,25.70
2023-12-18T08:39:55.703Z,21.80
2023-12-18T08:42:23.558Z,22.20
2023-12-18T08:44:51.302Z,20.90
2023-12-18T08:47:18.976Z,14.90
2023-12-18T08:49:46.528Z,15.10
2023-12-18T08:52:14.186Z,14.40
2023-12-18T08:54:41.876Z,13.50
2023-12-18T08:57:09.934Z,18.60
2023-12-18T08:59:37.478Z,15.90
2023-12-18T09:02:05.308Z,14.80
2023-12-18T09:04:33.148Z,15.50
2023-12-18T09:07:00.799Z,16.10
2023-12-18T09:09:28.437Z,55.90
2023-12-18T09:11:55.982Z,47.20
2023-12-18T09:14:23.563Z,21.60
2023-12-18T09:16:51.520Z,16.50
2023-12-18T09:19:19.252Z,24.30
2023-12-18T09:21:47.110Z,23.00
2023-12-18T09:24:14.837Z,16.80
2023-12-18T09:26:42.469Z,16.30
2023-12-18T09:29:10.214Z,17.90
2023-12-18T09:31:37.976Z,18.80
2023-12-18T09:34:06.147Z,18.90
2023-12-18T09:36:33.895Z,28.30
2023-12-18T09:39:02.002Z,19.50
2023-12-18T09:41:29.562Z,18.60
2023-12-18T09:43:57.230Z,16.10
2023-12-18T09:46:24.892Z,17.40
2023-12-18T09:48:52.640Z,17.40
2023-12-18T09:51:20.343Z,17.50
2023-12-18T09:53:47.978Z,14.80
2023-12-18T09:56:15.642Z,16.00
2023-12-18T09:58:43.197Z,14.90
2023-12-18T10:01:10.965Z,15.00
2023-12-18T10:03:38.695Z,15.40
2023-12-18T10:06:06.500Z,15.80
2023-12-18T10:08:34.049Z,12.80
2023-12-18T10:11:01.711Z,16.20
2023-12-18T10:13:29.269Z,15.90
2023-12-18T10:15:56.989Z,16.90
2023-12-18T10:18:24.896Z,13.40
2023-12-18T10:20:53.867Z,16.80
2023-12-18T10:23:21.448Z,15.30
2023-12-18T10:25:49.124Z,17.70
2023-12-18T10:28:16.770Z,15.40
2023-12-18T10:30:44.469Z,17.70
2023-12-18T10:33:12.617Z,16.30
2023-12-18T10:35:40.477Z,13.90
2023-12-18T10:38:08.043Z,18.80
2023-12-18T10:40:35.719Z,17.80
2023-12-18T10:43:03.764Z,16.20
2023-12-18T10:45:31.524Z,14.70
2023-12-18T10:47:59.429Z,14.30
2023-12-18T10:50:27.277Z,17.10
2023-12-18T10:52:54.826Z,14.40
2023-12-18T10:55:22.547Z,15.60
2023-12-18T10:57:50.258Z,12.90
2023-12-18T11:00:18.179Z,15.70
2023-12-18T11:02:45.893Z,13.90
2023-12-18T11:05:13.824Z,13.20
2023-12-18T11:07:41.949Z,12.80
2023-12-18T11:10:11.434Z,13.40
2023-12-18T11:12:40.344Z,14.30
2023-12-18T11:15:08.050Z,12.90
2023-12-18T11:17:35.901Z,12.20
2023-12-18T11:20:03.692Z,13.80
2023-12-18T11:22:31.478Z,14.10
2023-12-18T11:24:59.334Z,11.80
2023-12-18T11:27:26.926Z,14.40
2023-12-18T11:29:54.357Z,12.30
2023-12-18T11:32:21.909Z,12.10
2023-12-18T11:34:49.734Z,11.70
2023-12-18T11:37:17.551Z,13.40
2023-12-18T11:39:45.129Z,16.70
2023-12-18T11:42:13.302Z,12.10
2023-12-18T11:44:40.966Z,11.90
2023-12-18T11:47:08.594Z,12.20
2023-12-18T11:49:36.217Z,12.40
2023-12-18T11:52:03.924Z,11.90
2023-12-18T11:54:32.861Z,11.30
2023-12-18T11:57:00.574Z,12.20
2023-12-18T11:59:28.231Z,11.60
2023-12-18T12:01:55.789Z,11.60
2023-12-18T12:04:23.810Z,10.30
2023-12-18T12:06:51.480Z,11.20
2023-12-18T12:09:19.231Z,10.00
2023-12-18T12:11:46.846Z,42.50
2023-12-18T12:14:14.517Z,41.60
2023-12-18T12:16:41.898Z,39.50
2023-12-18T12:19:09.711Z,18.00
2023-12-18T12:21:45.223Z,10.70
2023-12-18T12:24:16.976Z,9.70
2023-12-18T12:26:44.818Z,10.50
2023-12-18T12:29:12.649Z,12.50
2023-12-18T12:31:40.535Z,11.70
2023-12-18T12:34:08.357Z,10.80
2023-12-18T12:36:36.113Z,12.70
2023-12-18T12:39:03.959Z,13.80
2023-12-18T12:41:33.432Z,12.60
2023-12-18T12:44:04.937Z,14.60
2023-12-18T12:46:36.008Z,13.20
2023-12-18T12:49:04.561Z,11.70
2023-12-18T12:51:34.279Z,8.10
2023-12-18T12:54:01.999Z,6.40
2023-12-18T12:56:29.651Z,5.40
2023-12-18T12:58:57.436Z,4.40
2023-12-18T13:01:25.191Z,7.10
2023-12-18T13:03:53.200Z,5.30
2023-12-18T13:06:21.554Z,5.50
2023-12-18T13:08:49.387Z,5.40
2023-12-18T13:11:17.055Z,6.40
2023-12-18T13:13:44.721Z,4.60
2023-12-18T13:16:12.261Z,6.70
2023-12-18T13:18:40.068Z,14.30
2023-12-18T13:21:07.803Z,18.40
2023-12-18T13:23:35.667Z,19.90
2023-12-18T13:26:03.656Z,26.50
2023-12-18T13:28:31.298Z,24.10
2023-12-18T13:30:58.744Z,28.60
2023-12-18T13:33:26.677Z,26.80
2023-12-18T13:35:55.524Z,24.40
2023-12-18T13:38:23.887Z,31.00
2023-12-18T13:40:51.446Z,35.80
2023-12-18T13:43:19.106Z,37.60
2023-12-18T13:45:46.860Z,24.70
2023-12-18T13:48:14.593Z,24.00
2023-12-18T13:50:42.700Z,23.50
2023-12-18T13:53:10.166Z,19.10
2023-12-18T13:55:37.724Z,28.80
2023-12-18T13:58:05.312Z,27.70
2023-12-18T14:00:33.010Z,23.40
2023-12-18T14:03:00.632Z,29.80
2023-12-18T14:05:28.192Z,29.40
2023-12-18T14:07:55.838Z,35.10
2023-12-18T14:10:23.517Z,36.60
2023-12-18T14:12:51.651Z,32.30
2023-12-18T14:15:19.388Z,38.00
2023-12-18T14:17:47.086Z,33.60
2023-12-18T14:20:14.779Z,35.20
2023-12-18T14:22:42.609Z,34.00
2023-12-18T14:25:10.539Z,36.50
2023-12-18T14:27:38.292Z,42.70
2023-12-18T14:30:06.145Z,47.00
2023-12-18T14:32:33.992Z,35.60
2023-12-18T14:35:01.873Z,35.80
2023-12-18T14:37:29.603Z,33.60
2023-12-18T14:39:57.431Z,29.40
2023-12-18T14:42:25.260Z,32.70
2023-12-18T14:44:52.813Z,38.20
2023-12-18T14:47:20.419Z,39.80
2023-12-18T14:49:48.125Z,40.90
2023-12-18T14:52:16.297Z,40.90
2023-12-18T14:54:43.870Z,48.60
2023-12-18T14:57:11.556Z,46.50
2023-12-18T14:59:39.170Z,58.00
2023-12-18T15:02:06.900Z,57.40
2023-12-18T15:04:34.710Z,53.90
2023-12-18T15:07:02.500Z,38.90
2023-12-18T15:09:30.293Z,29.00
2023-12-18T15:11:58.086Z,40.80
2023-12-18T15:14:25.973Z,38.00
2023-12-18T15:16:53.616Z,36.40
2023-12-18T15:19:21.340Z,40.80
2023-12-18T15:21:49.178Z,53.00
2023-12-18T15:24:16.844Z,40.20
2023-12-18T15:26:44.371Z,44.20
2023-12-18T15:29:11.950Z,41.90
2023-12-18T15:31:40.174Z,53.20
2023-12-18T15:34:08.163Z,52.10
2023-12-18T15:36:37.783Z,55.90
2023-12-18T15:39:05.441Z,55.60
2023-12-18T15:41:33.013Z,54.70
2023-12-18T15:44:00.560Z,54.40
2023-12-18T15:46:28.249Z,48.80
2023-12-18T15:48:55.962Z,53.10
2023-12-18T15:51:23.870Z,65.40
2023-12-18T15:53:51.829Z,63.00
2023-12-18T15:56:19.400Z,108.20
2023-12-18T15:58:46.967Z,112.00
2023-12-18T16:01:15.029Z,80.80
2023-12-18T16:03:43.012Z,90.70
2023-12-18T16:06:10.861Z,99.20
2023-12-18T16:08:38.405Z,70.10
2023-12-18T16:11:05.962Z,75.30
2023-12-18T16:13:33.625Z,180.10
2023-12-18T16:16:01.830Z,123.30
2023-12-18T16:18:29.782Z,124.20
2023-12-18T16:20:57.222Z,113.00
2023-12-18T16:23:24.998Z,103.40
2023-12-18T16:25:52.595Z,114.70
2023-12-18T16:28:20.312Z,80.60
2023-12-18T16:30:56.039Z,66.30
2023-12-18T16:33:25.431Z,62.60
2023-12-18T16:35:53.411Z,54.20
2023-12-18T16:38:21.506Z,47.60
2023-12-18T16:40:49.162Z,39.90
2023-12-18T16:43:16.831Z,39.70
2023-12-18T16:45:44.381Z,30.80
2023-12-18T16:48:12.008Z,30.50
2023-12-18T16:50:39.818Z,35.80
2023-12-18T16:53:07.503Z,31.40
2023-12-18T16:55:35.032Z,31.60
2023-12-18T16:58:02.706Z,31.80
2023-12-18T17:00:30.372Z,35.10
2023-12-18T17:02:58.019Z,29.40
2023-12-18T17:05:25.689Z,29.50
2023-12-18T17:07:53.575Z,30.20
2023-12-18T17:10:21.112Z,31.50
2023-12-18T17:12:48.786Z,34.60
2023-12-18T17:15:16.486Z,47.80
2023-12-18T17:17:44.206Z,47.30
2023-12-18T17:20:11.804Z,52.50
2023-12-18T17:22:39.743Z,48.70
2023-12-18T17:25:07.389Z,45.80
2023-12-18T17:27:35.194Z,44.90
2023-12-18T17:30:02.814Z,42.60
2023-12-18T17:32:30.550Z,38.30
2023-12-18T17:34:58.483Z,41.40
2023-12-18T17:37:26.295Z,48.30
2023-12-18T17:39:54.078Z,44.00
2023-12-18T17:42:22.169Z,43.70
2023-12-18T17:44:49.693Z,35.40
2023-12-18T17:47:17.370Z,34.20
2023-12-18T17:49:45.022Z,32.70
2023-12-18T17:52:12.694Z,30.30
2023-12-18T17:54:40.284Z,28.10
2023-12-18T17:57:07.903Z,27.30
2023-12-18T17:59:35.466Z,26.40
2023-12-18T18:02:03.126Z,28.90
2023-12-18T18:04:31.243Z,33.80
2023-12-18T18:06:59.001Z,44.50
2023-12-18T18:09:26.680Z,43.80
2023-12-18T18:11:54.276Z,57.40
2023-12-18T18:14:21.947Z,37.70
2023-12-18T18:16:49.505Z,42.60
2023-12-18T18:19:17.277Z,47.20
2023-12-18T18:21:44.960Z,45.90
2023-12-18T18:24:12.931Z,47.40
2023-12-18T18:26:40.555Z,62.10
2023-12-18T18:29:08.115Z,71.40
2023-12-18T18:31:35.849Z,77.60
2023-12-18T18:34:03.756Z,87.90
2023-12-18T18:36:31.536Z,74.10
2023-12-18T18:38:59.183Z,86.40
2023-12-18T18:41:27.034Z,71.10
2023-12-18T18:43:55.117Z,66.00
2023-12-18T18:46:22.674Z,75.00
2023-12-18T18:48:50.401Z,80.20
2023-12-18T18:51:18.231Z,60.10
2023-12-18T18:53:45.965Z,61.30
2023-12-18T18:56:13.526Z,70.60
2023-12-18T18:58:41.190Z,68.40
2023-12-18T19:01:08.880Z,65.00
2023-12-18T19:03:36.814Z,105.90
2023-12-18T19:06:04.783Z,73.90
2023-12-18T19:08:32.554Z,81.60
2023-12-18T19:10:59.998Z,80.30
2023-12-18T19:13:27.559Z,84.60
2023-12-18T19:15:55.480Z,93.70
2023-12-18T19:18:23.426Z,95.10
2023-12-18T19:20:51.062Z,96.80
2023-12-18T19:23:18.713Z,91.60
2023-12-18T19:25:46.278Z,73.90
2023-12-18T19:28:13.878Z,75.60
2023-12-18T19:30:41.572Z,97.60
2023-12-18T19:33:09.391Z,133.60
2023-12-18T19:35:37.118Z,108.10
2023-12-18T19:38:04.693Z,90.30
2023-12-18T19:40:32.243Z,80.60
2023-12-18T19:42:59.863Z,89.20
2023-12-18T19:45:27.596Z,92.40
2023-12-18T19:47:55.589Z,117.00
2023-12-18T19:50:23.982Z,115.70
2023-12-18T19:52:51.685Z,113.30
2023-12-18T19:55:19.238Z,105.10
2023-12-18T19:57:46.905Z,116.60
2023-12-18T20:00:14.567Z,90.50
2023-12-18T20:02:42.609Z,116.10
2023-12-18T20:05:10.501Z,107.60
2023-12-18T20:07:38.203Z,97.60
2023-12-18T20:10:05.952Z,112.10
2023-12-18T20:12:33.650Z,105.00
2023-12-18T20:15:01.540Z,95.50
2023-12-18T20:17:29.267Z,106.00
2023-12-18T20:19:56.932Z,103.70
2023-12-18T20:22:24.598Z,133.50
2023-12-18T20:24:52.456Z,107.80
2023-12-18T20:27:20.237Z,114.10
2023-12-18T20:29:47.932Z,100.70
2023-12-18T20:32:15.495Z,88.10
2023-12-18T20:34:43.251Z,92.60
2023-12-18T20:37:11.004Z,78.40
2023-12-18T20:39:38.829Z,54.60
2023-12-18T20:42:06.467Z,49.80
2023-12-18T20:44:34.009Z,57.60
2023-12-18T20:47:01.660Z,53.20
2023-12-18T20:49:29.409Z,47.60
2023-12-18T20:51:57.622Z,46.30
2023-12-18T20:54:25.390Z,42.80
2023-12-18T20:56:53.031Z,46.90
2023-12-18T20:59:20.605Z,46.00
2023-12-18T21:01:48.441Z,39.60
2023-12-18T21:04:16.273Z,41.50
2023-12-18T21:06:43.998Z,43.20
2023-12-18T21:09:11.643Z,35.10
2023-12-18T21:11:39.410Z,43.30
2023-12-18T21:14:07.431Z,37.30
2023-12-18T21:16:35.256Z,41.70
2023-12-18T21:19:03.009Z,49.50
2023-12-18T21:21:30.930Z,48.40
2023-12-18T21:23:58.643Z,60.10
2023-12-18T21:26:26.296Z,62.10
2023-12-18T21:28:53.869Z,79.40
2023-12-18T21:31:21.833Z,56.60
2023-12-18T21:33:49.854Z,53.70
2023-12-18T21:36:17.677Z,72.80
2023-12-18T21:38:45.217Z,69.30
2023-12-18T21:41:12.781Z,61.10
2023-12-18T21:43:40.364Z,53.50
2023-12-18T21:46:08.041Z,64.10
2023-12-18T21:48:35.820Z,56.30
2023-12-18T21:51:03.445Z,52.20
2023-12-18T21:53:31.106Z,58.70
2023-12-18T21:55:58.651Z,64.40
2023-12-18T21:58:26.658Z,49.90
2023-12-18T22:00:54.350Z,43.90
2023-12-18T22:03:22.233Z,48.00
2023-12-18T22:05:50.147Z,57.50
2023-12-18T22:08:17.883Z,47.60
2023-12-18T22:10:45.544Z,49.90
2023-12-18T22:13:13.125Z,47.60
2023-12-18T22:15:40.695Z,51.50
2023-12-18T22:18:08.487Z,47.00
2023-12-18T22:20:36.490Z,56.00
2023-12-18T22:23:04.069Z,90.20
2023-12-18T22:25:31.714Z,83.40
2023-12-18T22:27:59.390Z,101.90
2023-12-18T22:30:27.121Z,86.20
2023-12-18T22:32:54.965Z,56.40
2023-12-18T22:35:22.565Z,49.30
2023-12-18T22:37:50.134Z,46.20
2023-12-18T22:40:17.989Z,43.20
2023-12-18T22:42:45.839Z,46.80
2023-12-18T22:45:13.787Z,46.60
2023-12-18T22:47:41.414Z,45.50
2023-12-18T22:50:09.128Z,49.00
2023-12-18T22:52:36.815Z,45.10
2023-12-18T22:55:04.520Z,42.80
2023-12-18T22:57:32.155Z,42.70
2023-12-18T22:59:59.795Z,55.30
2023-12-18T23:02:27.355Z,60.50
2023-12-18T23:04:55.127Z,63.00
2023-12-18T23:07:22.783Z,62.40
2023-12-18T23:09:50.457Z,77.00
2023-12-18T23:12:18.110Z,56.00
2023-12-18T23:14:45.666Z,52.10
2023-12-18T23:17:13.225Z,49.20
2023-12-18T23:19:40.840Z,42.30
2023-12-18T23:22:08.692Z,58.30
2023-12-18T23:27:17.610Z,59.50
2023-12-18T23:29:45.148Z,78.40
2023-12-18T23:32:12.806Z,99.20
2023-12-18T23:34:40.552Z,118.40
2023-12-18T23:37:08.743Z,88.80
2023-12-18T23:39:36.419Z,93.30
2023-12-18T23:42:04.064Z,88.20
2023-12-18T23:44:31.646Z,130.70
2023-12-18T23:46:59.294Z,109.50
2023-12-18T23:49:26.936Z,118.70
2023-12-18T23:51:54.836Z,116.00
2023-12-18T23:54:22.641Z,127.00
2023-12-18T23:56:50.352Z,128.40
2023-12-18T23:59:18.318Z,94.60
